createdAt,value
2018-01-24T00:00:04.363Z,86.00
2018-01-24T00:02:33.411Z,85.90
2018-01-24T00:05:02.743Z,85.70
2018-01-24T00:07:32.084Z,86.10
2018-01-24T00:10:01.411Z,86.20
2018-01-24T00:12:30.743Z,86.90
2018-01-24T00:15:00.123Z,86.50
2018-01-24T00:17:29.454Z,87.20
2018-01-24T00:19:58.784Z,87.30
2018-01-24T00:22:28.165Z,87.00
2018-01-24T00:24:57.614Z,87.20
2018-01-24T00:27:26.964Z,87.00
2018-01-24T00:29:56.296Z,87.20
2018-01-24T00:32:25.632Z,87.30
2018-01-24T00:34:54.965Z,87.20
2018-01-24T00:37:24.306Z,87.70
2018-01-24T00:39:54.436Z,88.20
2018-01-24T00:42:24.527Z,88.50
2018-01-24T00:44:53.903Z,88.60
2018-01-24T00:47:23.238Z,88.40
2018-01-24T00:49:52.581Z,88.40
2018-01-24T00:52:21.917Z,88.30
2018-01-24T00:54:51.271Z,88.10
2018-01-24T00:57:20.608Z,88.40
2018-01-24T00:59:49.937Z,88.40
2018-01-24T01:02:19.266Z,88.30
2018-01-24T01:04:48.601Z,88.20
2018-01-24T01:07:17.926Z,88.10
2018-01-24T01:09:47.256Z,88.30
2018-01-24T01:12:17.377Z,88.00
2018-01-24T01:14:47.477Z,87.90
2018-01-24T01:17:16.854Z,87.90
2018-01-24T01:19:46.184Z,88.00
2018-01-24T01:22:15.507Z,88.50
2018-01-24T01:24:45.614Z,88.90
2018-01-24T01:27:14.952Z,88.80
2018-01-24T01:29:44.333Z,88.70
2018-01-24T01:32:14.447Z,88.10
2018-01-24T01:34:43.793Z,88.00
2018-01-24T01:37:13.139Z,88.10
2018-01-24T01:39:42.488Z,88.30
2018-01-24T01:42:11.855Z,88.70
2018-01-24T01:44:41.969Z,89.10
2018-01-24T01:47:12.083Z,89.90
2018-01-24T01:49:42.201Z,90.00
2018-01-24T01:52:11.551Z,90.00
2018-01-24T01:54:40.883Z,90.00
2018-01-24T01:57:10.214Z,90.00
2018-01-24T01:59:40.311Z,90.10
2018-01-24T02:02:09.627Z,90.10
2018-01-24T02:04:39.911Z,90.50
2018-01-24T02:07:09.990Z,90.80
2018-01-24T02:09:39.333Z,90.40
2018-01-24T02:12:08.685Z,90.50
2018-01-24T02:14:38.808Z,90.60
2018-01-24T02:17:08.162Z,90.60
2018-01-24T02:19:37.472Z,90.60
2018-01-24T02:22:06.825Z,90.70
2018-01-24T02:24:36.153Z,90.70
2018-01-24T02:27:05.490Z,90.70
2018-01-24T02:29:34.837Z,90.60
2018-01-24T02:32:04.176Z,90.60
2018-01-24T02:34:33.506Z,90.70
2018-01-24T02:37:03.651Z,91.00
2018-01-24T02:39:33.554Z,91.00
2018-01-24T02:42:03.696Z,91.20
2018-01-24T02:44:33.058Z,91.20
2018-01-24T02:47:02.415Z,91.30
2018-01-24T02:49:31.752Z,91.40
2018-01-24T02:52:01.091Z,91.20
2018-01-24T02:54:30.438Z,91.30
2018-01-24T02:56:59.791Z,91.40
2018-01-24T02:59:29.117Z,91.70
2018-01-24T03:01:58.472Z,91.70
2018-01-24T03:04:27.817Z,91.70
2018-01-24T03:06:57.168Z,91.70
2018-01-24T03:09:26.524Z,91.80
2018-01-24T03:11:56.531Z,91.90
2018-01-24T03:14:25.898Z,91.80
2018-01-24T03:16:55.251Z,91.80
2018-01-24T03:19:24.609Z,91.90
2018-01-24T03:21:53.979Z,91.80
2018-01-24T03:24:23.319Z,91.60
2018-01-24T03:26:52.676Z,91.70
2018-01-24T03:29:21.999Z,91.70
2018-01-24T03:31:51.342Z,91.80
2018-01-24T03:34:20.691Z,91.90
2018-01-24T03:36:50.021Z,92.10
2018-01-24T03:39:19.385Z,92.20
2018-01-24T03:41:48.702Z,92.40
2018-01-24T03:44:18.018Z,92.60
2018-01-24T03:46:48.157Z,92.50
2018-01-24T03:49:17.499Z,92.50
2018-01-24T03:51:46.832Z,92.50
2018-01-24T03:54:16.197Z,92.50
2018-01-24T03:56:45.523Z,92.70
2018-01-24T03:59:14.873Z,92.80
2018-01-24T04:01:44.191Z,92.90
2018-01-24T04:04:13.561Z,92.90
2018-01-24T04:06:42.898Z,92.80
2018-01-24T04:09:12.231Z,92.70
2018-01-24T04:11:41.577Z,93.00
2018-01-24T04:14:10.897Z,93.00
2018-01-24T04:16:40.251Z,92.60
2018-01-24T04:19:10.335Z,93.00
2018-01-24T04:21:39.683Z,93.00
2018-01-24T04:24:09.045Z,93.00
2018-01-24T04:26:38.388Z,93.00
2018-01-24T04:29:07.727Z,93.40
2018-01-24T04:31:37.084Z,93.30
2018-01-24T04:34:07.195Z,93.40
2018-01-24T04:36:37.309Z,93.30
2018-01-24T04:39:06.692Z,93.20
2018-01-24T04:41:36.012Z,93.40
2018-01-24T04:44:06.164Z,93.40
2018-01-24T04:46:35.497Z,93.40
2018-01-24T04:49:04.824Z,93.20
2018-01-24T04:51:34.195Z,93.50
2018-01-24T04:54:03.533Z,93.40
2018-01-24T04:56:32.869Z,93.50
2018-01-24T04:59:02.201Z,93.40
2018-01-24T05:01:31.578Z,93.10
2018-01-24T05:04:00.902Z,93.10
2018-01-24T05:06:30.238Z,93.20
2018-01-24T05:08:59.605Z,93.30
2018-01-24T05:11:28.947Z,93.30
2018-01-24T05:13:59.091Z,93.30
2018-01-24T05:16:28.432Z,93.30
2018-01-24T05:18:58.557Z,93.30
2018-01-24T05:21:43.656Z,93.30
2018-01-24T05:24:12.992Z,93.30
2018-01-24T05:26:42.337Z,93.20
2018-01-24T05:29:12.235Z,93.20
2018-01-24T05:31:41.566Z,93.30
2018-01-24T05:34:10.911Z,93.30
2018-01-24T05:36:41.006Z,93.40
2018-01-24T05:39:11.161Z,93.40
2018-01-24T05:41:40.524Z,93.40
2018-01-24T05:44:10.625Z,93.30
2018-01-24T05:46:39.962Z,93.30
2018-01-24T05:49:09.310Z,93.50
2018-01-24T05:51:38.666Z,93.50
2018-01-24T05:54:08.012Z,93.50
2018-01-24T05:56:37.353Z,93.60
2018-01-24T05:59:06.739Z,93.80
2018-01-24T06:01:36.046Z,93.70
2018-01-24T06:04:06.146Z,93.90
2018-01-24T06:06:36.210Z,93.90
2018-01-24T06:09:05.539Z,94.00
2018-01-24T06:11:34.885Z,94.20
2018-01-24T06:14:04.233Z,94.20
2018-01-24T06:16:33.581Z,94.10
2018-01-24T06:19:02.901Z,93.90
2018-01-24T06:21:33.016Z,93.80
2018-01-24T06:24:03.102Z,93.60
2018-01-24T06:26:32.444Z,93.60
2018-01-24T06:29:02.548Z,93.60
2018-01-24T06:31:31.926Z,93.60
2018-01-24T06:34:01.243Z,93.40
2018-01-24T06:36:30.580Z,93.40
2018-01-24T06:39:00.854Z,93.30
2018-01-24T06:41:30.202Z,93.40
2018-01-24T06:43:59.551Z,93.60
2018-01-24T06:46:28.931Z,93.70
2018-01-24T06:48:58.259Z,93.70
2018-01-24T06:51:27.603Z,93.40
2018-01-24T06:53:56.954Z,93.50
2018-01-24T06:56:26.279Z,93.50
2018-01-24T06:58:55.610Z,93.40
2018-01-24T07:01:24.956Z,93.40
2018-01-24T07:03:54.283Z,93.40
2018-01-24T07:06:23.637Z,93.30
2018-01-24T07:08:52.996Z,93.50
2018-01-24T07:11:23.101Z,93.70
2018-01-24T07:14:10.004Z,93.70
2018-01-24T07:16:39.320Z,93.80
2018-01-24T07:19:09.437Z,93.90
2018-01-24T07:21:38.805Z,93.90
2018-01-24T07:24:08.137Z,93.90
2018-01-24T07:26:37.552Z,93.90
2018-01-24T07:29:07.647Z,94.50
2018-01-24T07:31:37.013Z,94.20
2018-01-24T07:34:06.343Z,94.20
2018-01-24T07:36:35.672Z,94.50
2018-01-24T07:39:05.787Z,94.30
2018-01-24T07:41:35.125Z,94.30
2018-01-24T07:44:04.514Z,94.10
2018-01-24T07:46:34.626Z,93.70
2018-01-24T07:49:04.922Z,93.40
2018-01-24T07:51:34.246Z,93.40
2018-01-24T07:54:04.391Z,93.50
2018-01-24T07:56:33.754Z,93.50
2018-01-24T07:59:04.055Z,93.60
2018-01-24T08:01:33.405Z,93.70
2018-01-24T08:04:03.594Z,94.00
2018-01-24T08:06:32.912Z,94.00
2018-01-24T08:09:03.036Z,94.20
2018-01-24T08:11:33.151Z,94.30
2018-01-24T08:14:03.250Z,94.30
2018-01-24T08:16:32.615Z,94.30
2018-01-24T08:19:01.970Z,94.40
2018-01-24T08:21:31.316Z,94.60
2018-01-24T08:24:00.663Z,94.80
2018-01-24T08:26:30.016Z,94.90
2018-01-24T08:28:59.347Z,95.00
2018-01-24T08:31:28.753Z,95.00
2018-01-24T08:33:58.100Z,95.10
2018-01-24T08:36:27.430Z,94.90
2018-01-24T08:38:56.788Z,94.70
2018-01-24T08:41:26.904Z,94.60
2018-01-24T08:43:57.014Z,94.70
2018-01-24T08:46:26.359Z,94.70
2018-01-24T08:48:55.691Z,94.70
2018-01-24T08:51:25.027Z,94.80
2018-01-24T08:53:55.152Z,94.70
2018-01-24T08:56:25.242Z,94.70
2018-01-24T08:58:54.587Z,94.70
2018-01-24T09:01:23.930Z,94.70
2018-01-24T09:03:53.408Z,94.70
2018-01-24T09:06:22.983Z,94.70
2018-01-24T09:08:53.102Z,94.90
2018-01-24T09:11:23.225Z,95.00
2018-01-24T09:13:53.342Z,94.90
2018-01-24T09:16:23.456Z,94.70
2018-01-24T09:18:53.594Z,94.90
2018-01-24T09:21:22.934Z,94.80
2018-01-24T09:23:52.282Z,94.80
2018-01-24T09:26:22.383Z,94.70
2018-01-24T09:28:51.718Z,94.70
2018-01-24T09:31:21.065Z,94.50
2018-01-24T09:33:50.416Z,94.40
2018-01-24T09:36:20.518Z,94.10
2018-01-24T09:38:50.625Z,94.60
2018-01-24T09:41:19.946Z,94.30
2018-01-24T09:43:49.290Z,94.10
2018-01-24T09:46:18.648Z,94.10
2018-01-24T09:48:48.744Z,94.30
2018-01-24T09:51:18.085Z,94.30
2018-01-24T09:53:48.211Z,94.50
2018-01-24T09:56:17.536Z,94.50
2018-01-24T09:58:46.890Z,94.40
2018-01-24T10:01:16.235Z,94.40
2018-01-24T10:03:45.591Z,94.40
2018-01-24T10:06:15.724Z,94.70
2018-01-24T10:08:45.817Z,94.10
2018-01-24T10:11:15.188Z,94.10
2018-01-24T10:13:44.509Z,93.30
2018-01-24T10:16:13.865Z,93.20
2018-01-24T10:18:43.216Z,92.80
2018-01-24T10:21:12.545Z,92.80
2018-01-24T10:23:42.678Z,92.20
2018-01-24T10:26:12.031Z,92.20
2018-01-24T10:28:41.360Z,92.20
2018-01-24T10:31:11.490Z,92.00
2018-01-24T10:33:40.840Z,92.00
2018-01-24T10:36:10.189Z,91.70
2018-01-24T10:38:39.576Z,91.40
2018-01-24T10:41:08.919Z,91.40
2018-01-24T10:43:38.257Z,91.20
2018-01-24T10:46:07.616Z,91.30
2018-01-24T10:48:36.961Z,91.30
2018-01-24T10:51:06.313Z,91.20
2018-01-24T10:53:35.826Z,91.10
2018-01-24T10:56:05.158Z,91.00
2018-01-24T10:58:34.518Z,90.60
2018-01-24T11:01:03.903Z,90.70
2018-01-24T11:03:34.015Z,90.50
2018-01-24T11:06:04.161Z,90.20
2018-01-24T11:08:33.517Z,90.20
2018-01-24T11:11:02.850Z,90.20
2018-01-24T11:13:32.973Z,90.10
2018-01-24T11:16:03.080Z,89.30
2018-01-24T11:18:33.230Z,89.80
2018-01-24T11:21:02.571Z,89.60
2018-01-24T11:23:31.957Z,88.70
2018-01-24T11:26:01.300Z,89.00
2018-01-24T11:28:30.635Z,88.60
2018-01-24T11:31:00.014Z,87.90
2018-01-24T11:33:30.129Z,88.00
2018-01-24T11:36:00.266Z,87.30
2018-01-24T11:38:29.640Z,87.20
2018-01-24T11:40:58.990Z,87.60
2018-01-24T11:43:28.326Z,87.20
2018-01-24T11:45:57.697Z,86.80
2018-01-24T11:48:27.190Z,86.70
2018-01-24T11:50:56.525Z,86.40
2018-01-24T11:53:25.858Z,86.20
2018-01-24T11:55:55.996Z,85.80
2018-01-24T11:58:26.117Z,85.60
2018-01-24T12:00:55.480Z,85.60
2018-01-24T12:03:24.957Z,85.50
2018-01-24T12:05:54.312Z,85.70
2018-01-24T12:08:23.664Z,85.40
2018-01-24T12:10:53.015Z,84.80
2018-01-24T12:13:23.126Z,85.10
2018-01-24T12:15:53.276Z,85.00
2018-01-24T12:18:22.657Z,85.00
2018-01-24T12:20:52.750Z,84.70
2018-01-24T12:23:22.112Z,84.60
2018-01-24T12:25:51.439Z,84.40
2018-01-24T12:28:20.792Z,84.90
2018-01-24T12:30:50.295Z,84.70
2018-01-24T12:33:20.408Z,84.80
2018-01-24T12:35:50.535Z,85.00
2018-01-24T12:38:19.909Z,85.00
2018-01-24T12:40:49.298Z,84.70
2018-01-24T12:43:18.642Z,84.70
2018-01-24T12:45:47.996Z,84.50
2018-01-24T12:48:17.374Z,84.30
2018-01-24T12:50:46.733Z,84.10
2018-01-24T12:53:16.073Z,84.10
2018-01-24T12:55:45.441Z,84.10
2018-01-24T12:58:15.666Z,84.30
2018-01-24T13:00:45.805Z,83.90
2018-01-24T13:03:15.183Z,83.90
2018-01-24T13:05:46.045Z,84.30
2018-01-24T13:08:15.369Z,84.30
2018-01-24T13:10:44.697Z,83.80
2018-01-24T13:13:14.076Z,83.40
2018-01-24T13:15:43.484Z,83.60
2018-01-24T13:18:12.822Z,82.90
2018-01-24T13:20:42.954Z,82.90
2018-01-24T13:23:13.362Z,83.30
2018-01-24T13:25:42.700Z,83.30
2018-01-24T13:28:12.032Z,82.80
2018-01-24T13:30:41.390Z,82.70
2018-01-24T13:33:10.730Z,82.80
2018-01-24T13:35:40.058Z,82.40
2018-01-24T13:38:09.595Z,82.50
2018-01-24T13:40:39.711Z,81.20
2018-01-24T13:43:09.878Z,80.80
2018-01-24T13:45:39.230Z,80.70
2018-01-24T13:48:08.574Z,80.80
2018-01-24T13:50:37.907Z,81.20
2018-01-24T13:53:07.282Z,81.50
2018-01-24T13:55:36.644Z,81.80
2018-01-24T13:58:06.798Z,81.30
2018-01-24T14:00:36.141Z,81.30
2018-01-24T14:03:05.523Z,81.50
2018-01-24T14:05:34.885Z,81.80
2018-01-24T14:08:04.239Z,82.00
2018-01-24T14:10:33.603Z,81.40
2018-01-24T14:13:02.954Z,81.90
2018-01-24T14:15:32.335Z,82.30
2018-01-24T14:18:01.668Z,83.00
2018-01-24T14:20:31.272Z,82.30
2018-01-24T14:23:01.403Z,82.60
2018-01-24T14:25:31.517Z,82.90
2018-01-24T14:28:00.875Z,82.90
2018-01-24T14:30:30.235Z,82.60
2018-01-24T14:32:59.594Z,82.90
2018-01-24T14:35:28.960Z,82.60
2018-01-24T14:37:58.300Z,83.00
2018-01-24T14:40:27.632Z,82.70
2018-01-24T14:42:56.998Z,83.00
2018-01-24T14:45:26.390Z,83.20
2018-01-24T14:47:55.731Z,83.40
2018-01-24T14:50:25.832Z,83.90
2018-01-24T14:52:55.210Z,83.90
2018-01-24T14:55:24.553Z,84.00
2018-01-24T14:57:54.705Z,84.00
2018-01-24T15:00:24.074Z,84.00
2018-01-24T15:02:53.413Z,84.50
2018-01-24T15:05:22.780Z,84.70
2018-01-24T15:07:52.883Z,85.70
2018-01-24T15:10:22.413Z,85.70
2018-01-24T15:12:51.753Z,86.00
2018-01-24T15:15:21.758Z,86.40
2018-01-24T15:17:51.258Z,86.30
2018-01-24T15:20:20.625Z,86.60
2018-01-24T15:22:50.767Z,86.80
2018-01-24T15:25:20.098Z,86.70
2018-01-24T15:27:49.469Z,86.60
2018-01-24T15:30:18.841Z,86.50
2018-01-24T15:32:48.219Z,86.50
2018-01-24T15:35:17.560Z,86.60
2018-01-24T15:37:46.919Z,86.40
2018-01-24T15:40:16.278Z,86.30
2018-01-24T15:42:45.619Z,85.90
2018-01-24T15:45:14.977Z,85.80
2018-01-24T15:47:44.300Z,85.80
2018-01-24T15:50:13.668Z,85.80
2018-01-24T15:52:43.781Z,86.50
2018-01-24T15:55:14.010Z,86.30
2018-01-24T15:57:43.374Z,86.20
2018-01-24T16:00:12.722Z,86.50
2018-01-24T16:02:42.110Z,86.80
2018-01-24T16:05:11.500Z,86.80
2018-01-24T16:07:40.889Z,86.80
2018-01-24T16:10:10.258Z,86.50
2018-01-24T16:12:39.795Z,86.40
2018-01-24T16:15:09.190Z,86.30
2018-01-24T16:17:38.555Z,86.50
2018-01-24T16:20:07.900Z,86.80
2018-01-24T16:22:37.254Z,87.10
2018-01-24T16:25:06.626Z,87.10
2018-01-24T16:27:36.770Z,88.50
2018-01-24T16:30:06.139Z,87.70
2018-01-24T16:32:35.506Z,88.10
2018-01-24T16:35:05.742Z,88.10
2018-01-24T16:37:35.099Z,87.90
2018-01-24T16:40:04.439Z,88.00
2018-01-24T16:42:33.829Z,88.00
2018-01-24T16:45:03.203Z,88.60
2018-01-24T16:47:32.587Z,88.90
2018-01-24T16:50:02.710Z,89.00
2018-01-24T16:52:32.838Z,89.10
2018-01-24T16:55:02.178Z,89.10
2018-01-24T16:57:31.528Z,89.20
2018-01-24T17:00:01.686Z,89.30
2018-01-24T17:02:31.064Z,89.30
2018-01-24T17:05:01.198Z,89.50
2018-01-24T17:07:31.799Z,89.50
2018-01-24T17:10:01.943Z,89.30
2018-01-24T17:12:31.296Z,89.30
2018-01-24T17:15:00.646Z,89.40
2018-01-24T17:17:30.009Z,90.00
2018-01-24T17:19:59.381Z,89.80
2018-01-24T17:22:28.753Z,89.90
2018-01-24T17:24:58.107Z,90.00
2018-01-24T17:27:27.470Z,90.00
2018-01-24T17:29:56.817Z,90.00
2018-01-24T17:32:26.164Z,90.10
2018-01-24T17:34:55.536Z,90.20
2018-01-24T17:37:25.642Z,89.50
2018-01-24T17:39:55.019Z,89.50
2018-01-24T17:42:24.358Z,89.30
2018-01-24T17:44:54.728Z,89.40
2018-01-24T17:47:24.159Z,89.40
2018-01-24T17:49:53.500Z,88.60
2018-01-24T17:52:23.624Z,88.80
2018-01-24T17:54:53.737Z,89.00
2018-01-24T17:57:23.881Z,89.00
2018-01-24T17:59:53.214Z,89.00
2018-01-24T18:02:22.612Z,88.60
2018-01-24T18:04:51.961Z,88.60
2018-01-24T18:07:22.109Z,88.90
2018-01-24T18:09:51.464Z,88.70
2018-01-24T18:12:21.619Z,88.50
2018-01-24T18:14:51.152Z,88.40
2018-01-24T18:17:20.526Z,88.40
2018-01-24T18:19:49.894Z,88.10
2018-01-24T18:22:19.232Z,88.30
2018-01-24T18:24:48.617Z,87.90
2018-01-24T18:27:18.740Z,88.20
2018-01-24T18:29:48.110Z,88.20
2018-01-24T18:32:17.470Z,88.20
2018-01-24T18:34:46.829Z,87.90
2018-01-24T18:37:16.204Z,87.90
2018-01-24T18:39:45.565Z,87.90
2018-01-24T18:42:14.905Z,87.60
2018-01-24T18:44:44.297Z,87.60
2018-01-24T18:47:13.687Z,87.70
2018-01-24T18:49:43.052Z,88.00
2018-01-24T18:52:13.220Z,88.50
2018-01-24T18:54:42.562Z,88.50
2018-01-24T18:57:11.917Z,88.60
2018-01-24T18:59:41.281Z,88.70
2018-01-24T19:02:10.636Z,88.60
2018-01-24T19:04:40.025Z,88.20
2018-01-24T19:07:09.529Z,88.40
2018-01-24T19:09:38.945Z,88.90
2018-01-24T19:12:08.301Z,88.90
2018-01-24T19:14:37.678Z,88.50
2018-01-24T19:17:07.045Z,88.50
2018-01-24T19:19:36.420Z,88.40
2018-01-24T19:22:06.766Z,88.40
2018-01-24T19:24:36.127Z,88.30
2018-01-24T19:27:05.494Z,88.40
2018-01-24T19:29:34.873Z,88.40
2018-01-24T19:32:04.209Z,88.30
2018-01-24T19:34:33.603Z,88.60
2018-01-24T19:37:03.738Z,88.00
2018-01-24T19:39:33.113Z,88.00
2018-01-24T19:42:02.438Z,86.70
2018-01-24T19:44:31.791Z,86.70
2018-01-24T19:47:01.174Z,87.30
2018-01-24T19:49:30.556Z,87.20
2018-01-24T19:51:59.986Z,87.50
2018-01-24T19:54:29.372Z,87.60
2018-01-24T19:56:59.483Z,87.70
2018-01-24T19:59:29.635Z,87.80
2018-01-24T20:01:58.974Z,87.80
2018-01-24T20:04:28.330Z,87.80
2018-01-24T20:06:57.698Z,87.40
2018-01-24T20:09:27.837Z,88.30
2018-01-24T20:11:57.203Z,87.50
2018-01-24T20:14:26.540Z,87.50
2018-01-24T20:16:55.909Z,87.60
2018-01-24T20:19:25.270Z,86.60
2018-01-24T20:21:54.620Z,86.60
2018-01-24T20:24:23.972Z,86.20
2018-01-24T20:26:53.335Z,85.90
2018-01-24T20:29:22.671Z,85.50
2018-01-24T20:31:52.019Z,85.60
2018-01-24T20:34:21.376Z,85.10
2018-01-24T20:36:50.726Z,86.30
2018-01-24T20:39:20.047Z,86.40
2018-01-24T20:41:50.178Z,84.10
2018-01-24T20:44:20.308Z,83.60
2018-01-24T20:46:49.665Z,83.40
2018-01-24T20:49:19.140Z,83.50
2018-01-24T20:51:48.515Z,82.50
2018-01-24T20:54:17.875Z,82.50
2018-01-24T20:56:48.846Z,82.10
2018-01-24T20:59:18.979Z,81.80
2018-01-24T21:01:48.358Z,81.80
2018-01-24T21:04:18.454Z,82.80
2018-01-24T21:06:47.801Z,82.70
2018-01-24T21:09:17.151Z,82.50
2018-01-24T21:11:46.494Z,82.80
2018-01-24T21:14:16.606Z,82.40
2018-01-24T21:16:46.717Z,82.00
2018-01-24T21:19:16.818Z,82.00
2018-01-24T21:21:46.187Z,82.00
2018-01-24T21:24:15.522Z,81.40
2018-01-24T21:26:44.860Z,81.00
2018-01-24T21:29:40.750Z,80.50
2018-01-24T21:32:27.955Z,81.40
2018-01-24T21:35:15.087Z,80.80
2018-01-24T21:37:44.417Z,80.70
2018-01-24T21:40:13.754Z,81.00
2018-01-24T21:42:43.103Z,80.80
2018-01-24T21:45:13.248Z,80.60
2018-01-24T21:47:42.578Z,80.60
2018-01-24T21:50:11.908Z,81.30
2018-01-24T21:52:41.276Z,81.20
2018-01-24T21:55:10.617Z,81.20
2018-01-24T21:57:39.988Z,81.00
2018-01-24T22:00:09.357Z,80.40
2018-01-24T22:02:39.431Z,80.30
2018-01-24T22:05:08.771Z,80.10
2018-01-24T22:07:38.884Z,79.20
2018-01-24T22:10:09.041Z,79.40
2018-01-24T22:12:38.389Z,79.40
2018-01-24T22:15:07.766Z,80.30
2018-01-24T22:17:37.111Z,79.30
2018-01-24T22:20:06.468Z,79.90
2018-01-24T22:22:35.847Z,79.20
2018-01-24T22:25:05.207Z,79.90
2018-01-24T22:27:35.470Z,80.00
2018-01-24T22:30:04.830Z,79.90
2018-01-24T22:32:34.167Z,79.60
2018-01-24T22:35:03.510Z,79.60
2018-01-24T22:37:32.881Z,79.10
2018-01-24T22:40:02.235Z,78.90
2018-01-24T22:42:32.345Z,79.30
2018-01-24T22:45:01.694Z,79.30
2018-01-24T22:47:31.078Z,79.00
2018-01-24T22:50:00.417Z,78.50
2018-01-24T22:52:29.775Z,78.70
2018-01-24T22:54:59.115Z,78.80
2018-01-24T22:57:28.468Z,78.50
2018-01-24T22:59:58.584Z,78.70
2018-01-24T23:02:28.706Z,79.30
2018-01-24T23:04:58.921Z,78.60
2018-01-24T23:07:28.268Z,78.50
2018-01-24T23:09:57.624Z,80.00
2018-01-24T23:12:26.971Z,79.40
2018-01-24T23:14:56.362Z,79.20
2018-01-24T23:17:25.717Z,79.10
2018-01-24T23:19:55.075Z,78.20
2018-01-24T23:22:24.461Z,78.40
2018-01-24T23:24:53.829Z,78.80
2018-01-24T23:27:23.203Z,78.40
2018-01-24T23:29:52.537Z,77.90
2018-01-24T23:32:21.887Z,77.90
2018-01-24T23:34:51.222Z,78.50
2018-01-24T23:37:21.363Z,77.90
2018-01-24T23:39:51.491Z,78.30
2018-01-24T23:42:21.604Z,78.50
2018-01-24T23:44:51.705Z,78.10
2018-01-24T23:47:21.070Z,78.10
2018-01-24T23:49:50.416Z,78.20
2018-01-24T23:52:19.773Z,78.00
2018-01-24T23:54:49.145Z,77.90
2018-01-24T23:57:19.297Z,78.10
2018-01-24T23:59:47.915Z,78.00
